Portada
METAR-TAF:

METAR-TAF

Aeroports :

Branson, Missouri, Estats Units d'Amèrica

latitud: 36-31-55N, longitud: 093-12-02W, altitud: 397 m

Observació

L'informe es va fer fa 48 minuts, a les 12:15 UTC
Vent 5 kt del Nord-Oest
Temperatura 9°C
Humitat 71%
Pressió 1012 hPa
Visibilitat: 16.1 km
Cel clar

METAR: KBBG 191215Z AUTO 31005KT 10SM CLR 09/04 A2989 RMK AO2

Hora: 07:03 (13:03 UTC)

Pronòstic

L'informe es va fer fa 1 hora i 43 minuts, a les 11:20 UTC
Pronòstic vàlid del 19 a les 12 UTC al 20 a les 12 UTC
Vent 10 kt del Oest/Nord-Oest
Visibilitat: 10 km
Cel clar
A partir de les 19 a les 2200 UTC
Vent 3 kt amb direcció variable
Visibilitat: 10 km
Cel clar
A partir de les 20 a les 0600 UTC
Vent 6 kt del Sud-Est
Visibilitat: 10 km
Cel clar

TAF: KBBG 191120Z 1912/2012 30010KT P6SM SKC FM192200 VRB03KT P6SM SKC FM200600 14006KT P6SM SKC

Observacions i pronòstics meteorològics de més de 4000 aeroports (METAR i TAF).

Les estacions disponibles són els punts grocs i vermells al mapa.

Posi el ratolí al punt desitjat per veure el nom de l'estació.

Feu clic per veure les observacions i els pronòstics meteorològics.

Per canviar el mapa: feu clic els botons verds amb una creu de color negre per apropar; al botó verd amb un guió per allunyar la imatge; o en les fletxes verdes per a mapes adjacents.


METAR-TAF: